Terminal Aerodrome Forecast
Issued by NWS

Home | Current Version | Previous Version | Text Only | Print | Product List | Glossary On
Versions: 1 2 3 4 5 6 7 8 9 10 11 12 13 14 15 16 17 18 19 20 21 22 23 24 25 26 27 28 29 30 31 32 33 34 35 36
030
FTUS42 KKEY 280918 AAB
TAFMTH
TAF AMD
KMTH 280918Z 2809/2906 15012G19KT P6SM VCSH SCT012 BKN020 BKN050
      TEMPO 2809/2811 2SM +SHRA BR BKN012 OVC020
     FM281400 19012G21KT P6SM VCTS SCT020CB BKN040 BKN100=

USA.gov is the U.S. government's official web portal to all federal, state and local government web resources and services.